createdAt,value
2022-08-22T00:02:29.849Z,25.60
2022-08-22T00:02:56.789Z,25.50
2022-08-22T00:03:10.287Z,25.60
2022-08-22T00:05:05.920Z,25.60
2022-08-22T00:07:42.780Z,25.60
2022-08-22T00:10:21.037Z,25.60
2022-08-22T00:12:59.728Z,25.60
2022-08-22T00:15:43.383Z,25.60
2022-08-22T00:18:15.620Z,25.60
2022-08-22T00:20:50.093Z,25.60
2022-08-22T00:23:23.996Z,25.60
2022-08-22T00:25:58.743Z,25.60
2022-08-22T00:28:32.467Z,25.60
2022-08-22T00:31:09.071Z,25.60
2022-08-22T00:33:43.928Z,25.60
2022-08-22T00:36:20.064Z,25.60
2022-08-22T00:38:55.899Z,25.60
2022-08-22T00:41:35.562Z,25.60
2022-08-22T00:44:31.250Z,25.60
2022-08-22T00:47:36.152Z,25.60
2022-08-22T00:50:39.712Z,25.60
2022-08-22T00:53:42.456Z,25.60
2022-08-22T00:56:28.590Z,25.60
2022-08-22T00:59:23.210Z,25.60
2022-08-22T01:02:04.975Z,25.60
2022-08-22T01:04:59.644Z,25.60
2022-08-22T01:07:55.393Z,25.50
2022-08-22T01:10:41.337Z,25.60
2022-08-22T01:13:32.439Z,25.50
2022-08-22T01:16:16.107Z,25.50
2022-08-22T01:19:15.116Z,25.50
2022-08-22T01:22:13.664Z,25.50
2022-08-22T01:25:22.618Z,25.50
2022-08-22T01:28:30.036Z,25.50
2022-08-22T01:31:37.337Z,25.50
2022-08-22T01:34:42.580Z,25.50
2022-08-22T01:37:43.411Z,25.50
2022-08-22T01:41:03.568Z,25.50
2022-08-22T01:44:00.426Z,25.50
2022-08-22T01:46:51.038Z,25.50
2022-08-22T01:49:24.036Z,25.50
2022-08-22T01:51:58.664Z,25.50
2022-08-22T01:54:37.153Z,25.50
2022-08-22T01:57:09.009Z,25.50
2022-08-22T01:59:42.359Z,25.50
2022-08-22T02:02:28.711Z,25.50
2022-08-22T02:05:03.916Z,25.50
2022-08-22T02:07:46.163Z,25.50
2022-08-22T02:10:21.095Z,25.50
2022-08-22T02:13:01.410Z,25.50
2022-08-22T02:15:45.456Z,25.50
2022-08-22T02:18:21.873Z,25.50
2022-08-22T02:21:06.269Z,25.50
2022-08-22T02:23:47.121Z,25.50
2022-08-22T02:26:17.001Z,25.50
2022-08-22T02:28:57.949Z,25.50
2022-08-22T02:31:37.810Z,25.50
2022-08-22T02:34:25.450Z,25.50
2022-08-22T02:36:59.886Z,25.50
2022-08-22T02:39:37.871Z,25.50
2022-08-22T02:42:20.369Z,25.50
2022-08-22T02:44:58.547Z,25.50
2022-08-22T02:47:34.021Z,25.50
2022-08-22T02:50:12.880Z,25.50
2022-08-22T02:52:53.999Z,25.50
2022-08-22T02:55:37.019Z,25.60
2022-08-22T02:58:12.731Z,25.50
2022-08-22T03:00:48.939Z,25.60
2022-08-22T03:03:23.822Z,25.50
2022-08-22T03:06:01.289Z,25.50
2022-08-22T03:08:32.403Z,25.50
2022-08-22T03:11:12.485Z,25.50
2022-08-22T03:13:53.731Z,25.50
2022-08-22T03:16:29.793Z,25.50
2022-08-22T03:19:03.329Z,25.50
2022-08-22T03:21:36.037Z,25.50
2022-08-22T03:24:12.542Z,25.50
2022-08-22T03:26:50.457Z,25.50
2022-08-22T03:29:25.098Z,25.50
2022-08-22T03:32:09.886Z,25.50
2022-08-22T03:34:38.825Z,25.50
2022-08-22T03:37:16.588Z,25.50
2022-08-22T03:39:58.709Z,25.50
2022-08-22T03:42:49.948Z,25.50
2022-08-22T03:46:12.768Z,25.50
2022-08-22T03:49:07.047Z,25.50
2022-08-22T03:51:57.309Z,25.50
2022-08-22T03:54:48.894Z,25.50
2022-08-22T03:57:53.061Z,25.50
2022-08-22T04:00:48.524Z,25.50
2022-08-22T04:03:57.239Z,25.50
2022-08-22T04:06:49.385Z,25.50
2022-08-22T04:09:56.686Z,25.50
2022-08-22T04:13:01.393Z,25.50
2022-08-22T04:15:58.689Z,25.50
2022-08-22T04:18:54.384Z,25.50
2022-08-22T04:21:43.265Z,25.50
2022-08-22T04:24:34.383Z,25.50
2022-08-22T04:27:11.755Z,25.50
2022-08-22T04:29:46.373Z,25.50
2022-08-22T04:32:21.922Z,25.50
2022-08-22T04:34:54.637Z,25.50
2022-08-22T04:37:27.285Z,25.50
2022-08-22T04:40:00.825Z,25.50
2022-08-22T04:42:34.601Z,25.50
2022-08-22T04:45:09.889Z,25.50
2022-08-22T04:47:44.141Z,25.50
2022-08-22T04:50:22.215Z,25.50
2022-08-22T04:53:15.710Z,25.50
2022-08-22T04:55:52.982Z,25.50
2022-08-22T04:58:35.392Z,25.50
2022-08-22T05:01:11.919Z,25.50
2022-08-22T05:03:45.966Z,25.50
2022-08-22T05:06:19.027Z,25.50
2022-08-22T05:08:54.041Z,25.50
2022-08-22T05:11:24.783Z,25.50
2022-08-22T05:13:56.933Z,25.50
2022-08-22T05:16:27.713Z,25.50
2022-08-22T05:19:02.055Z,25.50
2022-08-22T05:21:34.275Z,25.50
2022-08-22T05:24:05.706Z,25.50
2022-08-22T05:26:38.989Z,25.50
2022-08-22T05:29:09.209Z,25.50
2022-08-22T05:31:41.749Z,25.50
2022-08-22T05:34:15.195Z,25.50
2022-08-22T05:36:47.145Z,25.50
2022-08-22T05:39:18.400Z,25.40
2022-08-22T05:41:47.464Z,25.40
2022-08-22T05:44:20.544Z,25.40
2022-08-22T05:46:54.430Z,25.40
2022-08-22T05:49:30.955Z,25.40
2022-08-22T05:52:09.758Z,25.40
2022-08-22T05:54:47.619Z,25.40
2022-08-22T05:57:25.882Z,25.40
2022-08-22T06:00:00.658Z,25.30
2022-08-22T06:02:44.072Z,25.30
2022-08-22T06:05:13.882Z,25.30
2022-08-22T06:07:45.879Z,25.30
2022-08-22T06:10:24.681Z,25.30
2022-08-22T06:13:00.982Z,25.30
2022-08-22T06:15:35.344Z,25.30
2022-08-22T06:18:09.293Z,25.30
2022-08-22T06:20:43.620Z,25.40
2022-08-22T06:23:18.315Z,25.30
2022-08-22T06:25:49.722Z,25.30
2022-08-22T06:28:22.743Z,25.30
2022-08-22T06:30:54.778Z,25.30
2022-08-22T06:33:27.686Z,25.30
2022-08-22T06:36:21.185Z,25.30
2022-08-22T06:39:15.715Z,25.30
2022-08-22T06:41:49.213Z,25.30
2022-08-22T06:44:21.119Z,25.30
2022-08-22T06:46:52.149Z,25.30
2022-08-22T06:49:23.010Z,25.30
2022-08-22T06:51:53.556Z,25.30
2022-08-22T06:54:32.492Z,25.30
2022-08-22T06:57:04.559Z,25.30
2022-08-22T06:59:35.736Z,25.30
2022-08-22T07:02:09.242Z,25.30
2022-08-22T07:04:38.150Z,25.40
2022-08-22T07:07:07.794Z,25.40
2022-08-22T07:09:39.405Z,25.40
2022-08-22T07:12:16.622Z,25.40
2022-08-22T07:14:49.508Z,25.50
2022-08-22T07:17:21.630Z,25.40
2022-08-22T07:19:58.363Z,25.50
2022-08-22T07:22:30.668Z,25.50
2022-08-22T07:25:02.374Z,25.50
2022-08-22T07:27:49.003Z,25.50
2022-08-22T07:30:27.504Z,25.50
2022-08-22T07:33:23.608Z,25.60
2022-08-22T07:35:56.831Z,25.50
2022-08-22T07:38:34.846Z,25.60
2022-08-22T07:41:11.341Z,25.60
2022-08-22T07:43:44.556Z,25.60
2022-08-22T07:46:24.097Z,25.60
2022-08-22T07:49:09.041Z,25.60
2022-08-22T07:51:43.907Z,25.60
2022-08-22T07:54:17.011Z,25.60
2022-08-22T07:56:53.324Z,25.60
2022-08-22T07:59:22.598Z,25.60
2022-08-22T08:01:54.712Z,25.70
2022-08-22T08:04:27.027Z,25.70
2022-08-22T08:06:59.871Z,25.70
2022-08-22T08:09:33.639Z,25.70
2022-08-22T08:12:05.822Z,25.70
2022-08-22T08:14:37.355Z,25.70
2022-08-22T08:17:09.763Z,25.70
2022-08-22T08:19:42.091Z,25.70
2022-08-22T08:22:16.629Z,25.70
2022-08-22T08:24:47.741Z,25.70
2022-08-22T08:27:37.739Z,25.80
2022-08-22T08:30:15.424Z,25.80
2022-08-22T08:32:47.133Z,25.80
2022-08-22T08:35:25.616Z,25.80
2022-08-22T08:37:59.331Z,25.80
2022-08-22T08:41:09.351Z,25.80
2022-08-22T08:43:47.886Z,25.80
2022-08-22T08:46:55.584Z,25.80
2022-08-22T08:49:43.858Z,25.80
2022-08-22T08:52:41.684Z,25.80
2022-08-22T08:55:22.875Z,25.90
2022-08-22T08:58:17.718Z,25.90
2022-08-22T09:00:52.566Z,25.80
2022-08-22T09:03:44.520Z,25.90
2022-08-22T09:06:34.197Z,25.90
2022-08-22T09:09:13.968Z,25.90
2022-08-22T09:12:20.140Z,25.90
2022-08-22T09:15:31.443Z,25.90
2022-08-22T09:18:38.536Z,25.90
2022-08-22T09:21:47.733Z,25.90
2022-08-22T09:24:46.888Z,25.90
2022-08-22T09:27:21.548Z,25.90
2022-08-22T09:30:00.015Z,25.90
2022-08-22T09:32:50.408Z,25.90
2022-08-22T09:35:27.082Z,25.90
2022-08-22T09:38:34.720Z,25.90
2022-08-22T09:41:14.576Z,26.00
2022-08-22T09:43:48.780Z,26.00
2022-08-22T09:46:21.491Z,26.00
2022-08-22T09:49:12.221Z,26.00
2022-08-22T09:51:46.169Z,26.00
2022-08-22T09:54:23.965Z,26.00
2022-08-22T09:57:26.704Z,26.00
2022-08-22T10:00:30.248Z,26.00
2022-08-22T10:03:08.707Z,26.10
2022-08-22T10:05:46.476Z,26.00
2022-08-22T10:08:40.707Z,26.10
2022-08-22T10:11:24.315Z,26.10
2022-08-22T10:14:02.334Z,26.10
2022-08-22T10:16:54.192Z,26.10
2022-08-22T10:19:28.641Z,26.10
2022-08-22T10:22:24.242Z,26.10
2022-08-22T10:25:20.973Z,26.10
2022-08-22T10:28:03.593Z,26.10
2022-08-22T10:30:38.139Z,26.10
2022-08-22T10:33:13.898Z,26.10
2022-08-22T10:36:00.984Z,26.10
2022-08-22T10:38:44.244Z,26.10
2022-08-22T10:41:25.817Z,26.10
2022-08-22T10:44:01.328Z,26.20
2022-08-22T10:46:38.155Z,26.10
2022-08-22T10:49:16.473Z,26.10
2022-08-22T10:51:50.442Z,26.10
2022-08-22T10:54:46.085Z,26.10
2022-08-22T10:57:22.569Z,26.10
2022-08-22T11:00:01.318Z,26.10
2022-08-22T11:02:42.309Z,26.20
2022-08-22T11:05:33.850Z,26.20
2022-08-22T11:08:21.374Z,26.20
2022-08-22T11:11:05.879Z,26.20
2022-08-22T11:13:43.425Z,26.20
2022-08-22T11:16:26.193Z,26.20
2022-08-22T11:19:15.211Z,26.10
2022-08-22T11:21:53.364Z,26.20
2022-08-22T11:25:06.085Z,26.20
2022-08-22T11:27:45.896Z,26.20
2022-08-22T11:30:18.585Z,26.20
2022-08-22T11:33:21.029Z,26.10
2022-08-22T11:36:13.210Z,26.10
2022-08-22T11:38:54.433Z,26.10
2022-08-22T11:41:28.164Z,26.10
2022-08-22T11:44:04.514Z,26.10
2022-08-22T11:46:36.510Z,26.10
2022-08-22T11:49:25.604Z,26.10
2022-08-22T11:52:04.283Z,26.10
2022-08-22T11:54:48.440Z,26.10
2022-08-22T11:57:31.071Z,26.10
2022-08-22T12:00:20.790Z,26.10
2022-08-22T12:03:08.224Z,26.10
2022-08-22T12:05:51.425Z,26.10
2022-08-22T12:08:49.475Z,26.10
2022-08-22T12:11:25.044Z,26.10
2022-08-22T12:14:06.030Z,26.10
2022-08-22T12:16:45.031Z,26.10
2022-08-22T12:19:19.746Z,26.10
2022-08-22T12:22:36.776Z,26.10
2022-08-22T12:25:22.521Z,26.10
2022-08-22T12:28:08.711Z,26.10
2022-08-22T12:30:43.016Z,26.10
2022-08-22T12:33:33.112Z,26.10
2022-08-22T12:36:31.388Z,26.10
2022-08-22T12:39:31.868Z,26.10
2022-08-22T12:42:25.158Z,26.10
2022-08-22T12:45:12.300Z,26.10
2022-08-22T12:47:55.329Z,26.10
2022-08-22T12:50:37.815Z,26.10
2022-08-22T12:53:46.609Z,26.10
2022-08-22T12:56:28.535Z,26.10
2022-08-22T12:59:18.613Z,26.10
2022-08-22T13:01:49.249Z,26.10
2022-08-22T13:04:33.311Z,26.10
2022-08-22T13:07:19.335Z,26.10
2022-08-22T13:09:52.948Z,26.20
2022-08-22T13:12:28.270Z,26.10
2022-08-22T13:15:01.879Z,26.20
2022-08-22T13:17:31.209Z,26.10
2022-08-22T13:20:08.853Z,26.20
2022-08-22T13:22:45.637Z,26.20
2022-08-22T13:25:25.803Z,26.20
2022-08-22T13:27:55.648Z,26.20
2022-08-22T13:30:31.212Z,26.20
2022-08-22T13:33:08.721Z,26.20
2022-08-22T13:35:44.623Z,26.20
2022-08-22T13:38:26.283Z,26.20
2022-08-22T13:40:56.976Z,26.20
2022-08-22T13:43:29.797Z,26.20
2022-08-22T13:46:02.088Z,26.20
2022-08-22T13:48:46.693Z,26.20
2022-08-22T13:51:22.391Z,26.20
2022-08-22T13:54:02.193Z,26.20
2022-08-22T13:56:38.008Z,26.20
2022-08-22T13:59:40.036Z,26.30
2022-08-22T14:02:17.947Z,26.30
2022-08-22T14:04:48.754Z,26.30
2022-08-22T14:07:28.686Z,26.20
2022-08-22T14:10:02.687Z,26.20
2022-08-22T14:12:50.307Z,26.20
2022-08-22T14:15:23.743Z,26.30
2022-08-22T14:17:57.076Z,26.30
2022-08-22T14:20:33.632Z,26.20
2022-08-22T14:23:08.751Z,26.30
2022-08-22T14:25:41.376Z,26.30
2022-08-22T14:28:22.668Z,26.30
2022-08-22T14:31:01.228Z,26.30
2022-08-22T14:33:36.502Z,26.20
2022-08-22T14:36:14.947Z,26.20
2022-08-22T14:38:50.227Z,26.30
2022-08-22T14:41:55.466Z,26.20
2022-08-22T14:44:23.984Z,26.30
2022-08-22T14:46:57.048Z,26.30
2022-08-22T14:49:34.692Z,26.30
2022-08-22T14:52:09.852Z,26.30
2022-08-22T14:54:39.177Z,26.30
2022-08-22T14:57:19.779Z,26.30
2022-08-22T14:59:51.236Z,26.30
2022-08-22T15:02:27.749Z,26.30
2022-08-22T15:04:58.038Z,26.30
2022-08-22T15:07:28.963Z,26.30
2022-08-22T15:10:05.474Z,26.30
2022-08-22T15:12:40.025Z,26.30
2022-08-22T15:15:15.592Z,26.30
2022-08-22T15:17:46.286Z,26.30
2022-08-22T15:20:28.482Z,26.30
2022-08-22T15:23:00.265Z,26.30
2022-08-22T15:25:32.611Z,26.30
2022-08-22T15:28:06.841Z,26.30
2022-08-22T15:30:45.919Z,26.30
2022-08-22T15:33:22.820Z,26.30
2022-08-22T15:35:52.941Z,26.30
2022-08-22T15:38:31.595Z,26.30
2022-08-22T15:41:32.368Z,26.30
2022-08-22T15:44:17.198Z,26.30
2022-08-22T15:47:05.615Z,26.30
2022-08-22T15:49:50.670Z,26.30
2022-08-22T15:52:25.902Z,26.30
2022-08-22T15:55:29.975Z,26.30
2022-08-22T15:58:07.622Z,26.30
2022-08-22T16:00:43.464Z,26.30
2022-08-22T16:03:25.693Z,26.30
2022-08-22T16:05:56.406Z,26.30
2022-08-22T16:08:33.315Z,26.30
2022-08-22T16:11:30.821Z,26.30
2022-08-22T16:14:22.501Z,26.20
2022-08-22T16:17:01.508Z,26.30
2022-08-22T16:19:31.263Z,26.20
2022-08-22T16:22:11.303Z,26.20
2022-08-22T16:25:03.031Z,26.20
2022-08-22T16:27:31.554Z,26.20
2022-08-22T16:30:17.471Z,26.20
2022-08-22T16:32:56.409Z,26.20
2022-08-22T16:36:04.088Z,26.20
2022-08-22T16:38:41.670Z,26.20
2022-08-22T16:41:26.603Z,26.20
2022-08-22T16:44:20.577Z,26.10
2022-08-22T16:46:52.558Z,26.20
2022-08-22T16:49:32.474Z,26.10
2022-08-22T16:52:38.045Z,26.10
2022-08-22T16:55:27.105Z,26.20
2022-08-22T16:58:06.509Z,26.10
2022-08-22T17:00:42.970Z,26.10
2022-08-22T17:03:19.199Z,26.10
2022-08-22T17:05:59.510Z,26.10
2022-08-22T17:08:44.609Z,26.10
2022-08-22T17:11:24.331Z,26.10
2022-08-22T17:14:10.085Z,26.10
2022-08-22T17:16:54.022Z,26.10
2022-08-22T17:19:36.407Z,26.10
2022-08-22T17:22:17.218Z,26.10
2022-08-22T17:24:46.412Z,26.10
2022-08-22T17:27:23.583Z,26.10
2022-08-22T17:30:02.526Z,26.10
2022-08-22T17:32:39.042Z,26.10
2022-08-22T17:35:17.441Z,26.10
2022-08-22T17:37:56.215Z,26.10
2022-08-22T17:40:35.482Z,26.10
2022-08-22T17:43:19.544Z,26.10
2022-08-22T17:46:03.030Z,26.10
2022-08-22T17:48:42.268Z,26.10
2022-08-22T17:51:26.493Z,26.10
2022-08-22T17:54:02.030Z,26.10
2022-08-22T17:56:36.393Z,26.00
2022-08-22T17:59:07.938Z,26.00
2022-08-22T18:01:48.372Z,26.00
2022-08-22T18:04:26.076Z,26.00
2022-08-22T18:07:01.578Z,26.00
2022-08-22T18:09:40.427Z,26.00
2022-08-22T18:12:17.805Z,26.00
2022-08-22T18:14:53.461Z,26.00
2022-08-22T18:17:28.106Z,26.00
2022-08-22T18:20:04.132Z,26.00
2022-08-22T18:22:36.911Z,26.00
2022-08-22T18:25:11.704Z,26.00
2022-08-22T18:27:48.102Z,26.00
2022-08-22T18:30:20.733Z,26.00
2022-08-22T18:32:59.344Z,26.00
2022-08-22T18:35:33.398Z,26.00
2022-08-22T18:38:10.598Z,26.00
2022-08-22T18:40:54.720Z,26.00
2022-08-22T18:43:30.991Z,26.00
2022-08-22T18:46:04.097Z,26.00
2022-08-22T18:48:49.817Z,25.90
2022-08-22T18:51:31.869Z,26.00
2022-08-22T18:54:33.705Z,26.00
2022-08-22T18:57:10.761Z,26.00
2022-08-22T18:59:55.621Z,26.00
2022-08-22T19:03:05.026Z,26.00
2022-08-22T19:05:53.974Z,26.00
2022-08-22T19:08:43.231Z,26.00
2022-08-22T19:11:25.423Z,26.00
2022-08-22T19:14:10.623Z,26.00
2022-08-22T19:17:06.475Z,26.00
2022-08-22T19:20:07.591Z,25.90
2022-08-22T19:22:37.724Z,26.00
2022-08-22T19:25:13.342Z,25.90
2022-08-22T19:27:44.593Z,26.00
2022-08-22T19:30:41.470Z,26.00
2022-08-22T19:33:11.600Z,26.00
2022-08-22T19:35:59.758Z,25.90
2022-08-22T19:38:53.069Z,26.00
2022-08-22T19:41:50.787Z,25.90
2022-08-22T19:44:50.144Z,26.00
2022-08-22T19:47:31.376Z,26.00
2022-08-22T19:50:05.705Z,25.90
2022-08-22T19:52:47.938Z,25.90
2022-08-22T19:55:23.689Z,26.00
2022-08-22T19:58:00.486Z,26.00
2022-08-22T20:00:53.609Z,25.90
2022-08-22T20:03:32.937Z,25.90
2022-08-22T20:06:22.030Z,25.90
2022-08-22T20:09:14.780Z,25.90
2022-08-22T20:11:48.733Z,25.90
2022-08-22T20:14:30.633Z,25.90
2022-08-22T20:17:03.918Z,25.90
2022-08-22T20:22:42.509Z,25.90
2022-08-22T20:25:43.079Z,26.00
2022-08-22T20:28:09.610Z,25.90
2022-08-22T20:30:40.694Z,25.90
2022-08-22T20:33:14.688Z,25.90
2022-08-22T20:35:51.646Z,26.00
2022-08-22T20:38:24.501Z,25.90
2022-08-22T20:41:00.744Z,25.90
2022-08-22T20:43:35.584Z,25.90
2022-08-22T20:46:19.042Z,25.90
2022-08-22T20:48:50.217Z,25.90
2022-08-22T20:51:25.009Z,25.90
2022-08-22T20:53:57.350Z,25.90
2022-08-22T20:56:52.900Z,25.90
2022-08-22T20:59:30.087Z,25.90
2022-08-22T21:02:05.794Z,25.90
2022-08-22T21:04:43.030Z,25.90
2022-08-22T21:07:12.912Z,25.90
2022-08-22T21:09:58.221Z,25.90
2022-08-22T21:12:27.771Z,25.90
2022-08-22T21:14:55.978Z,25.90
2022-08-22T21:17:29.153Z,25.90
2022-08-22T21:20:19.449Z,25.90
2022-08-22T21:22:49.238Z,25.90
2022-08-22T21:25:17.642Z,25.90
2022-08-22T21:27:49.116Z,25.90
2022-08-22T21:30:25.090Z,25.90
2022-08-22T21:32:56.165Z,25.90
2022-08-22T21:35:30.689Z,25.90
2022-08-22T21:38:02.259Z,25.90
2022-08-22T21:40:35.515Z,25.90
2022-08-22T21:43:07.397Z,25.90
2022-08-22T21:45:42.715Z,25.90
2022-08-22T21:48:38.323Z,25.90
2022-08-22T21:51:32.640Z,25.90
2022-08-22T21:54:28.927Z,25.80
2022-08-22T21:56:59.617Z,25.90
2022-08-22T21:59:40.152Z,25.90
2022-08-22T22:02:34.238Z,25.90
2022-08-22T22:05:08.698Z,25.80
2022-08-22T22:07:38.703Z,25.90
2022-08-22T22:10:11.824Z,25.80
2022-08-22T22:12:41.743Z,25.80
2022-08-22T22:15:13.541Z,25.80
2022-08-22T22:17:41.910Z,25.80
2022-08-22T22:20:11.084Z,25.80
2022-08-22T22:22:46.129Z,25.80
2022-08-22T22:25:40.346Z,25.80
2022-08-22T22:28:08.697Z,25.80
2022-08-22T22:30:37.316Z,25.80
2022-08-22T22:33:06.429Z,25.80
2022-08-22T22:35:35.109Z,25.80
2022-08-22T22:38:03.290Z,25.80
2022-08-22T22:40:33.075Z,25.80
2022-08-22T22:43:01.348Z,25.80
2022-08-22T22:45:29.633Z,25.80
2022-08-22T22:47:58.375Z,25.80
2022-08-22T22:50:27.030Z,25.80
2022-08-22T22:52:55.246Z,25.80
2022-08-22T22:55:24.918Z,25.80
2022-08-22T22:57:58.773Z,25.80
2022-08-22T23:00:30.771Z,25.80
2022-08-22T23:03:00.535Z,25.80
2022-08-22T23:05:29.098Z,25.80
2022-08-22T23:07:57.596Z,25.80
2022-08-22T23:10:26.139Z,25.80
2022-08-22T23:12:55.737Z,25.80
2022-08-22T23:15:23.894Z,25.80
2022-08-22T23:17:52.231Z,25.80
2022-08-22T23:20:20.644Z,25.80
2022-08-22T23:22:48.894Z,25.80
2022-08-22T23:25:17.108Z,25.80
2022-08-22T23:27:45.367Z,25.80
2022-08-22T23:30:23.174Z,25.80
2022-08-22T23:32:51.506Z,25.80
2022-08-22T23:35:20.012Z,25.80
2022-08-22T23:37:48.150Z,25.80
2022-08-22T23:40:16.453Z,25.80
2022-08-22T23:42:44.674Z,25.80
2022-08-22T23:45:12.894Z,25.80
2022-08-22T23:47:42.493Z,25.80
2022-08-22T23:50:11.082Z,25.80
2022-08-22T23:52:39.320Z,25.80
2022-08-22T23:55:09.041Z,25.70
2022-08-22T23:57:37.282Z,25.80
